Time;durP1;ratioP1;P1;durP2;ratioP2;P2;SDS_P1;SDS_P2;PMS_P1;PMS_P2;Temp;Humidity;BMP_temperature;BMP_pressure;BME280_temperature;BME280_humidity;BME280_pressure;Samples;Min_cycle;Max_cycle;Signal;HPM_P1;HPM_P2
2023/04/18 00:04:50;;;;;;;8.77;6.03;;;15.30;80.50;;;;;;10866741;32;20066;-71
2023/04/18 00:10:52;;;;;;;7.75;6.43;;;15.50;80.40;;;;;;10868634;32;20322;-71
2023/04/18 00:16:56;;;;;;;8.52;6.75;;;15.50;80.30;;;;;;10873040;32;20042;-71
2023/04/18 00:22:59;;;;;;;9.07;7.07;;;15.40;80.40;;;;;;10853471;32;20342;-71
2023/04/18 00:29:02;;;;;;;9.82;5.10;;;15.40;80.50;;;;;;10873107;32;20395;-71
2023/04/18 00:35:05;;;;;;;10.20;6.18;;;15.40;80.40;;;;;;10871113;32;20046;-71
2023/04/18 00:41:09;;;;;;;10.80;6.85;;;15.40;80.50;;;;;;10867682;32;20046;-71
2023/04/18 00:47:17;;;;;;;7.65;5.43;;;15.40;80.50;;;;;;10853384;32;20414;-71
2023/04/18 00:53:19;;;;;;;10.32;7.80;;;15.30;80.50;;;;;;10870525;32;20055;-71
2023/04/18 00:59:22;;;;;;;7.68;6.22;;;15.20;80.60;;;;;;10871052;32;20476;-71
2023/04/18 01:05:25;;;;;;;10.13;7.78;;;15.20;80.70;;;;;;10856670;32;20361;-71
2023/04/18 01:11:28;;;;;;;8.82;6.47;;;15.20;80.80;;;;;;10856489;32;20028;-71
2023/04/18 01:17:33;;;;;;;9.07;6.40;;;15.20;80.60;;;;;;10856181;32;20065;-71
2023/04/18 01:23:35;;;;;;;9.48;5.20;;;15.20;80.60;;;;;;10865117;32;20019;-71
2023/04/18 01:29:38;;;;;;;7.55;5.37;;;15.10;80.70;;;;;;10855497;32;20073;-71
2023/04/18 01:35:40;;;;;;;7.40;5.37;;;15.00;80.80;;;;;;10856424;32;20047;-72
2023/04/18 01:41:42;;;;;;;7.68;4.80;;;15.00;80.90;;;;;;10854783;32;20071;-71
2023/04/18 01:47:46;;;;;;;7.18;6.05;;;14.90;81.00;;;;;;10854768;32;20027;-71
2023/04/18 01:53:48;;;;;;;6.82;4.90;;;14.90;81.00;;;;;;10868551;32;20023;-71
2023/04/18 01:59:51;;;;;;;7.18;5.28;;;15.00;81.00;;;;;;10869926;32;20020;-71
2023/04/18 02:05:54;;;;;;;11.02;4.82;;;15.00;81.00;;;;;;10868052;32;20016;-71
2023/04/18 02:11:58;;;;;;;6.80;4.97;;;15.00;81.00;;;;;;10868325;32;20322;-71
2023/04/18 02:18:02;;;;;;;6.53;5.15;;;15.00;80.90;;;;;;10867260;32;20015;-71
2023/04/18 02:24:04;;;;;;;5.12;4.25;;;15.00;80.90;;;;;;10853937;32;20032;-72
2023/04/18 02:30:07;;;;;;;9.77;7.20;;;15.00;80.90;;;;;;10867813;32;20284;-72
2023/04/18 02:36:10;;;;;;;5.93;3.87;;;14.90;80.90;;;;;;10868223;32;20065;-71
2023/04/18 02:42:13;;;;;;;9.45;5.20;;;14.80;80.90;;;;;;10868013;32;20037;-72
2023/04/18 02:48:15;;;;;;;7.20;4.85;;;14.70;81.10;;;;;;10867254;32;20019;-71
2023/04/18 02:54:24;;;;;;;8.20;7.18;;;14.60;81.20;;;;;;10862992;32;20019;-71
2023/04/18 03:00:27;;;;;;;7.77;4.57;;;14.60;81.30;;;;;;10866654;32;20027;-71
2023/04/18 03:06:30;;;;;;;10.02;6.37;;;14.60;81.20;;;;;;10863479;32;20051;-71
2023/04/18 03:12:34;;;;;;;6.90;5.68;;;14.60;81.30;;;;;;10866846;32;20443;-71
2023/04/18 03:18:38;;;;;;;5.90;4.00;;;14.70;81.10;;;;;;10866616;32;20405;-71
2023/04/18 03:24:41;;;;;;;7.85;4.60;;;14.70;81.10;;;;;;10852405;32;20028;-71
2023/04/18 03:30:43;;;;;;;5.57;3.92;;;14.70;81.30;;;;;;10866496;32;20074;-71
2023/04/18 03:36:46;;;;;;;5.80;3.55;;;14.70;81.10;;;;;;10865704;32;20061;-71
2023/04/18 03:42:48;;;;;;;14.25;5.45;;;14.70;81.20;;;;;;10858109;32;20035;-71
2023/04/18 03:48:50;;;;;;;5.12;3.83;;;14.60;81.20;;;;;;10872865;32;20082;-72
2023/04/18 03:54:52;;;;;;;6.10;4.70;;;14.60;81.40;;;;;;10869523;32;20024;-71
2023/04/18 04:00:56;;;;;;;6.07;4.03;;;14.50;81.30;;;;;;10870240;32;20189;-71
2023/04/18 04:07:00;;;;;;;4.18;3.22;;;14.50;81.40;;;;;;10872785;32;20299;-71
2023/04/18 04:13:02;;;;;;;7.60;4.90;;;14.50;81.50;;;;;;10846252;32;20070;-72
2023/04/18 04:19:07;;;;;;;5.53;3.90;;;14.40;81.30;;;;;;10871784;32;20036;-72
2023/04/18 04:25:12;;;;;;;5.53;3.83;;;14.40;81.40;;;;;;10872773;32;20412;-71
2023/04/18 04:31:17;;;;;;;6.75;4.03;;;14.30;81.20;;;;;;10869837;32;20058;-72
2023/04/18 04:37:20;;;;;;;5.50;3.75;;;14.20;81.30;;;;;;10871762;32;20019;-72
2023/04/18 04:43:24;;;;;;;5.57;3.58;;;14.00;81.40;;;;;;10872080;32;20337;-72
2023/04/18 04:49:27;;;;;;;4.75;3.50;;;13.90;81.60;;;;;;10870773;32;20019;-71
2023/04/18 04:55:31;;;;;;;5.03;3.87;;;14.00;81.40;;;;;;10856488;32;20414;-71
2023/04/18 05:01:34;;;;;;;7.90;5.78;;;13.90;81.40;;;;;;10870371;32;20038;-71
2023/04/18 05:07:36;;;;;;;3.78;2.83;;;13.90;81.40;;;;;;10857991;32;20020;-71
2023/04/18 05:13:38;;;;;;;13.05;4.18;;;13.90;81.20;;;;;;10868688;32;20062;-71
2023/04/18 05:19:42;;;;;;;4.78;3.28;;;13.90;81.20;;;;;;10870578;32;20051;-74
2023/04/18 05:25:45;;;;;;;4.37;3.15;;;13.90;81.20;;;;;;10869426;32;20016;-74
2023/04/18 05:31:47;;;;;;;4.07;3.00;;;14.00;81.10;;;;;;10869156;32;20032;-73
2023/04/18 05:37:50;;;;;;;5.62;3.35;;;13.90;81.20;;;;;;10854749;32;20031;-73
2023/04/18 05:43:52;;;;;;;5.05;3.85;;;14.00;81.20;;;;;;10868704;32;20023;-73
2023/04/18 05:49:54;;;;;;;4.70;3.50;;;14.00;81.20;;;;;;10868962;32;20020;-73
2023/04/18 05:55:57;;;;;;;4.35;2.95;;;14.00;81.30;;;;;;10866779;32;20065;-73
2023/04/18 06:02:00;;;;;;;8.07;5.82;;;14.20;81.40;;;;;;10867708;32;20015;-72
2023/04/18 06:08:02;;;;;;;6.47;4.22;;;14.30;81.60;;;;;;10868124;32;20027;-71
2023/04/18 06:14:04;;;;;;;6.53;4.07;;;14.50;81.60;;;;;;10867331;32;20024;-71
2023/04/18 06:20:08;;;;;;;5.53;4.15;;;14.60;81.70;;;;;;10847037;32;20358;-72
2023/04/18 06:26:10;;;;;;;6.47;4.43;;;14.90;81.60;;;;;;10864234;32;20176;-72
2023/04/18 06:32:13;;;;;;;4.75;3.10;;;15.00;81.40;;;;;;10866553;32;20031;-71
2023/04/18 06:38:15;;;;;;;10.27;3.75;;;15.10;81.70;;;;;;10866869;32;20046;-71
2023/04/18 06:44:17;;;;;;;5.15;3.40;;;15.30;81.80;;;;;;10863234;32;20028;-71
2023/04/18 06:50:19;;;;;;;4.57;3.40;;;15.50;82.10;;;;;;10867791;32;20046;-71
2023/04/18 06:56:22;;;;;;;4.90;3.87;;;15.60;82.40;;;;;;10866438;32;20113;-72
2023/04/18 07:02:24;;;;;;;5.75;4.07;;;15.70;81.90;;;;;;10852467;32;20401;-72
2023/04/18 07:08:26;;;;;;;5.30;3.25;;;15.80;82.10;;;;;;10852045;32;20304;-71
2023/04/18 07:14:28;;;;;;;3.87;2.90;;;15.90;81.60;;;;;;10854347;32;20034;-72
2023/04/18 07:20:31;;;;;;;4.53;3.10;;;16.00;81.60;;;;;;10878383;32;20055;-72
2023/04/18 07:26:33;;;;;;;7.37;3.55;;;16.10;81.70;;;;;;10876040;32;20027;-72
2023/04/18 07:32:35;;;;;;;3.58;2.67;;;16.30;81.60;;;;;;10864092;32;20039;-72
2023/04/18 07:38:38;;;;;;;5.15;2.37;;;16.50;81.60;;;;;;10874855;32;20023;-72
2023/04/18 07:44:41;;;;;;;5.80;2.03;;;16.60;80.60;;;;;;10878142;32;20055;-72
2023/04/18 07:50:43;;;;;;;4.20;2.65;;;16.80;81.10;;;;;;10485382;27;12341751;-71
2023/04/18 07:56:45;;;;;;;2.47;2.03;;;16.90;80.80;;;;;;10870506;32;20023;-71
2023/04/18 08:02:48;;;;;;;1.35;1.30;;;17.10;80.40;;;;;;10870823;32;20042;-71
2023/04/18 08:08:51;;;;;;;2.28;1.67;;;17.20;81.40;;;;;;10873872;32;20346;-73
2023/04/18 08:14:53;;;;;;;1.87;1.42;;;17.20;81.60;;;;;;10873802;32;20075;-73
2023/04/18 08:20:56;;;;;;;1.27;1.00;;;17.30;80.90;;;;;;10945906;32;20361;-73
2023/04/18 08:26:58;;;;;;;2.00;1.42;;;17.30;81.40;;;;;;10948195;32;20023;-73
2023/04/18 08:33:01;;;;;;;1.20;1.10;;;17.30;81.70;;;;;;10946176;32;20030;-73
2023/04/18 08:39:04;;;;;;;9.13;1.77;;;17.30;82.10;;;;;;10934021;32;20027;-73
2023/04/18 08:45:08;;;;;;;2.58;1.87;;;17.40;81.80;;;;;;10908411;32;20058;-73
2023/04/18 08:51:10;;;;;;;3.83;2.47;;;17.30;80.90;;;;;;10894135;32;20041;-73
2023/04/18 08:57:25;;;;;;;2.75;1.87;;;17.40;79.20;;;;;;10894282;32;20027;-73
2023/04/18 09:03:39;;;;;;;2.15;1.58;;;17.50;79.30;;;;;;10894312;32;20019;-73
2023/04/18 09:09:46;;;;;;;2.17;1.87;;;17.60;79.10;;;;;;10907407;32;20490;-73
2023/04/18 09:15:55;;;;;;;2.72;1.77;;;17.70;79.50;;;;;;10907043;32;20022;-73
2023/04/18 09:21:59;;;;;;;3.35;1.92;;;17.70;79.10;;;;;;10902876;32;20204;-73
2023/04/18 09:28:03;;;;;;;2.90;1.75;;;17.70;78.80;;;;;;10906844;32;20059;-73
2023/04/18 09:34:23;;;;;;;2.03;1.50;;;17.70;78.60;;;;;;10931538;32;20065;-73
2023/04/18 09:40:26;;;;;;;3.37;2.25;;;17.80;78.40;;;;;;10943720;32;20022;-73
2023/04/18 09:46:28;;;;;;;11.30;1.83;;;18.00;78.30;;;;;;10943808;32;20048;-73
2023/04/18 09:52:35;;;;;;;2.90;1.87;;;18.20;77.30;;;;;;10943142;32;20027;-73
2023/04/18 09:58:41;;;;;;;3.17;2.08;;;18.30;76.90;;;;;;10943402;32;20046;-73
2023/04/18 10:04:45;;;;;;;2.35;1.52;;;18.30;76.10;;;;;;10942322;32;20019;-73
2023/04/18 10:10:48;;;;;;;2.03;1.48;;;18.30;74.90;;;;;;10942919;32;20023;-73
2023/04/18 10:16:50;;;;;;;4.00;1.73;;;18.40;75.10;;;;;;10942437;32;20031;-73
2023/04/18 10:22:54;;;;;;;2.60;1.48;;;18.60;74.90;;;;;;10942298;32;20019;-73
2023/04/18 10:28:58;;;;;;;2.08;1.33;;;18.80;74.20;;;;;;10942253;32;20428;-73
2023/04/18 10:35:00;;;;;;;2.28;1.60;;;19.10;71.60;;;;;;10928753;32;20018;-73
2023/04/18 10:41:20;;;;;;;3.08;2.05;;;19.40;70.90;;;;;;10928248;32;20341;-72
2023/04/18 10:47:23;;;;;;;2.05;1.55;;;19.70;69.30;;;;;;10937654;32;20027;-73
2023/04/18 10:53:25;;;;;;;1.45;1.20;;;19.60;68.40;;;;;;10941404;32;20451;-74
2023/04/18 10:59:30;;;;;;;3.58;2.42;;;19.90;66.90;;;;;;10941270;32;20324;-72
2023/04/18 11:05:33;;;;;;;3.12;2.33;;;20.20;66.80;;;;;;10941299;32;20046;-72
2023/04/18 11:11:35;;;;;;;8.07;2.17;;;20.70;66.20;;;;;;10941206;32;20019;-72
2023/04/18 11:17:39;;;;;;;2.72;1.15;;;21.00;65.20;;;;;;10937769;32;20027;-72
2023/04/18 11:23:41;;;;;;;2.55;1.05;;;21.40;64.10;;;;;;10941642;32;20073;-72
2023/04/18 11:29:44;;;;;;;7.30;2.30;;;21.60;62.60;;;;;;10941938;32;20089;-72
2023/04/18 11:35:46;;;;;;;2.83;1.20;;;21.90;62.30;;;;;;10940451;32;20023;-72
2023/04/18 11:41:49;;;;;;;2.60;1.23;;;21.90;61.50;;;;;;10928387;32;20389;-72
2023/04/18 11:47:56;;;;;;;2.10;1.48;;;22.00;61.50;;;;;;10942212;32;20050;-73
2023/04/18 11:53:58;;;;;;;2.20;1.67;;;22.30;61.10;;;;;;10940988;32;20031;-73
2023/04/18 12:00:01;;;;;;;3.00;1.87;;;22.30;59.30;;;;;;10943086;32;20283;-73
2023/04/18 12:06:03;;;;;;;3.78;1.62;;;22.30;55.80;;;;;;10933261;32;20046;-73
2023/04/18 12:12:06;;;;;;;6.47;3.58;;;22.40;55.90;;;;;;10948293;32;20324;-73
2023/04/18 12:18:11;;;;;;;3.60;1.90;;;22.40;57.10;;;;;;10948215;32;20027;-73
2023/04/18 12:24:17;;;;;;;3.95;2.40;;;22.40;56.70;;;;;;10944821;32;20419;-72
2023/04/18 12:30:21;;;;;;;2.35;1.55;;;22.60;56.40;;;;;;10947906;32;20023;-73
2023/04/18 12:36:25;;;;;;;2.97;2.20;;;22.80;54.70;;;;;;10946966;32;20022;-74
2023/04/18 12:42:27;;;;;;;4.87;2.03;;;22.80;53.80;;;;;;10946447;32;20023;-73
2023/04/18 12:48:30;;;;;;;4.28;2.62;;;22.80;53.80;;;;;;10942853;32;20020;-72
2023/04/18 12:54:33;;;;;;;3.62;2.67;;;22.80;53.20;;;;;;10944582;32;20092;-72
2023/04/18 13:00:36;;;;;;;2.97;1.37;;;22.90;55.30;;;;;;10946202;32;20018;-72
2023/04/18 13:06:39;;;;;;;3.37;1.50;;;23.00;54.60;;;;;;10946136;32;20042;-73
2023/04/18 13:12:41;;;;;;;3.17;1.40;;;22.90;53.90;;;;;;10944549;32;20027;-72
2023/04/18 13:18:43;;;;;;;2.00;1.48;;;22.90;52.30;;;;;;10946182;32;20046;-73
2023/04/18 13:24:46;;;;;;;2.95;1.65;;;23.00;52.10;;;;;;10945800;32;20018;-72
2023/04/18 13:30:48;;;;;;;1.65;1.05;;;23.20;51.70;;;;;;10930590;32;20039;-73
2023/04/18 13:36:50;;;;;;;2.22;1.10;;;23.30;54.90;;;;;;10925934;32;20065;-72
2023/04/18 13:42:53;;;;;;;2.78;1.48;;;23.30;52.60;;;;;;10932135;32;20057;-72
2023/04/18 13:48:55;;;;;;;2.58;1.45;;;23.30;53.80;;;;;;10925715;32;20035;-72
2023/04/18 13:54:57;;;;;;;2.92;1.92;;;23.30;55.20;;;;;;10932651;32;20373;-72
2023/04/18 14:00:59;;;;;;;3.30;1.40;;;23.30;55.40;;;;;;10926416;32;20027;-73
2023/04/18 14:07:02;;;;;;;2.60;1.75;;;23.20;55.80;;;;;;10920818;32;20081;-72
2023/04/18 14:13:04;;;;;;;4.53;1.42;;;23.50;53.60;;;;;;10923593;32;20054;-72
2023/04/18 14:19:06;;;;;;;0.95;0.82;;;23.70;52.70;;;;;;10910915;32;20062;-72
2023/04/18 14:25:09;;;;;;;1.30;1.00;;;23.70;51.80;;;;;;10908072;32;20031;-72
2023/04/18 14:31:12;;;;;;;2.50;1.40;;;23.80;50.90;;;;;;10876535;32;20065;-72
2023/04/18 14:37:14;;;;;;;2.95;1.40;;;23.90;51.00;;;;;;10890685;32;20333;-73
2023/04/18 14:43:17;;;;;;;3.55;2.00;;;23.50;52.50;;;;;;10905695;32;20015;-72
2023/04/18 14:49:19;;;;;;;3.45;1.52;;;23.30;54.80;;;;;;10905558;32;20023;-72
2023/04/18 14:55:21;;;;;;;3.25;1.60;;;23.50;56.30;;;;;;10903846;32;20026;-72
2023/04/18 15:01:24;;;;;;;0.80;0.60;;;23.70;54.00;;;;;;10892261;32;20019;-73
2023/04/18 15:07:26;;;;;;;2.47;1.33;;;23.70;52.80;;;;;;10903656;32;20046;-73
2023/04/18 15:14:06;;;;;;;1.65;1.00;;;23.80;51.50;;;;;;10904678;32;20054;-72
2023/04/18 15:20:08;;;;;;;2.12;1.08;;;24.00;50.50;;;;;;10877217;32;20042;-72
2023/04/18 15:26:10;;;;;;;2.45;1.30;;;24.30;50.60;;;;;;10904543;32;20042;-72
2023/04/18 15:32:13;;;;;;;4.97;1.00;;;24.50;50.40;;;;;;10887745;32;20066;-72
2023/04/18 15:38:15;;;;;;;2.97;1.60;;;24.30;51.20;;;;;;10910724;32;20028;-72
2023/04/18 15:44:17;;;;;;;2.47;1.60;;;24.20;54.10;;;;;;10909875;32;20030;-72
2023/04/18 15:50:19;;;;;;;6.47;2.03;;;24.30;56.00;;;;;;10898613;27;20117;-72
2023/04/18 15:56:25;;;;;;;4.03;2.00;;;24.60;55.00;;;;;;10871308;32;20397;-73
2023/04/18 16:02:27;;;;;;;4.53;2.00;;;24.90;61.00;;;;;;10872614;32;20047;-72
2023/04/18 16:08:29;;;;;;;2.85;1.40;;;24.90;61.30;;;;;;10859913;32;20423;-72
2023/04/18 16:14:32;;;;;;;3.92;1.70;;;25.10;60.60;;;;;;10873505;32;20299;-72
2023/04/18 16:20:34;;;;;;;1.83;1.23;;;25.30;59.40;;;;;;10857815;32;20016;-72
2023/04/18 16:26:36;;;;;;;5.12;1.65;;;25.30;58.40;;;;;;10859148;32;20020;-72
2023/04/18 16:32:39;;;;;;;1.70;1.02;;;25.60;55.70;;;;;;10857750;32;20031;-72
2023/04/18 16:38:41;;;;;;;4.75;2.05;;;25.60;56.00;;;;;;10869949;32;20027;-72
2023/04/18 16:44:44;;;;;;;2.47;1.50;;;25.00;57.30;;;;;;10872401;32;20420;-72
2023/04/18 16:50:46;;;;;;;2.08;1.50;;;24.70;60.40;;;;;;10869950;32;20066;-73
2023/04/18 16:56:48;;;;;;;2.55;1.50;;;25.10;59.30;;;;;;10867861;32;20031;-72
2023/04/18 17:02:50;;;;;;;2.55;1.55;;;25.10;60.00;;;;;;10871624;32;20397;-72
2023/04/18 17:08:53;;;;;;;1.48;1.05;;;25.30;58.20;;;;;;10870767;32;20070;-72
2023/04/18 17:14:55;;;;;;;0.93;0.68;;;25.30;57.90;;;;;;10858467;32;20090;-71
2023/04/18 17:20:57;;;;;;;2.10;1.15;;;25.00;60.20;;;;;;10870203;32;20015;-71
2023/04/18 17:27:00;;;;;;;4.60;1.08;;;24.40;61.50;;;;;;10855432;32;20050;-71
2023/04/18 17:33:02;;;;;;;1.27;0.73;;;23.80;62.80;;;;;;10855421;32;20346;-71
2023/04/18 17:39:05;;;;;;;1.52;1.10;;;23.60;63.30;;;;;;10869605;32;20394;-72
2023/04/18 17:45:08;;;;;;;1.15;0.80;;;23.60;63.20;;;;;;10857547;32;20015;-70
2023/04/18 17:51:10;;;;;;;2.53;1.25;;;23.40;63.40;;;;;;10869930;32;20046;-71
2023/04/18 17:57:12;;;;;;;1.58;0.90;;;23.00;64.20;;;;;;10869167;32;20448;-71
2023/04/18 18:03:16;;;;;;;1.40;0.80;;;22.70;65.10;;;;;;10868398;32;20043;-70
2023/04/18 18:09:18;;;;;;;1.12;0.52;;;22.30;65.80;;;;;;10869118;32;20428;-70
2023/04/18 18:15:20;;;;;;;1.15;0.98;;;22.10;66.60;;;;;;10868486;32;20050;-71
2023/04/18 18:21:22;;;;;;;2.95;0.93;;;21.90;67.00;;;;;;10867626;32;20012;-71
2023/04/18 18:27:24;;;;;;;1.92;1.27;;;21.80;67.40;;;;;;10853999;32;20402;-71
2023/04/18 18:33:27;;;;;;;2.90;1.70;;;21.60;67.90;;;;;;10853330;32;20073;-71
2023/04/18 18:39:47;;;;;;;3.08;1.45;;;21.40;68.20;;;;;;10866655;32;20038;-71
2023/04/18 18:45:50;;;;;;;3.67;2.37;;;21.30;68.30;;;;;;10867979;32;20030;-71
2023/04/18 18:51:52;;;;;;;3.25;2.35;;;21.30;68.30;;;;;;10867276;32;20024;-70
2023/04/18 18:57:54;;;;;;;4.32;2.37;;;21.20;68.70;;;;;;10854605;32;20378;-71
2023/04/18 19:03:56;;;;;;;3.65;1.95;;;21.00;69.10;;;;;;10851128;32;20053;-71
2023/04/18 19:10:00;;;;;;;4.35;2.62;;;20.80;69.60;;;;;;10848125;32;20342;-70
2023/04/18 19:16:02;;;;;;;4.50;2.20;;;20.70;70.00;;;;;;10865492;32;20180;-71
2023/04/18 19:22:05;;;;;;;5.03;2.55;;;20.60;70.40;;;;;;10867336;32;20038;-71
2023/04/18 19:28:07;;;;;;;4.70;2.87;;;20.40;70.80;;;;;;10854506;32;20041;-71
2023/04/18 19:34:12;;;;;;;4.70;3.40;;;20.30;71.00;;;;;;10867012;32;20047;-71
2023/04/18 19:40:16;;;;;;;6.25;3.55;;;20.30;71.20;;;;;;10853628;32;20019;-71
2023/04/18 19:46:19;;;;;;;7.28;3.85;;;20.20;71.20;;;;;;10866150;32;20003;-71
2023/04/18 19:52:23;;;;;;;5.57;3.30;;;20.30;71.40;;;;;;10865723;32;20078;-70
2023/04/18 19:58:43;;;;;;;5.30;2.97;;;20.10;71.50;;;;;;10865840;32;20031;-70
2023/04/18 20:04:45;;;;;;;4.18;2.78;;;20.10;71.40;;;;;;10867052;32;20034;-70
2023/04/18 20:10:47;;;;;;;5.80;3.42;;;19.90;71.80;;;;;;10865769;32;20007;-71
2023/04/18 20:16:49;;;;;;;5.78;3.90;;;19.80;72.10;;;;;;10865686;32;20049;-71
2023/04/18 20:22:52;;;;;;;7.85;5.03;;;19.80;72.20;;;;;;10855309;32;20031;-70
2023/04/18 20:28:54;;;;;;;6.60;3.92;;;19.70;72.90;;;;;;10872855;32;20050;-71
2023/04/18 20:34:58;;;;;;;5.37;3.50;;;19.70;73.00;;;;;;10872041;32;20412;-70
2023/04/18 20:41:01;;;;;;;7.65;5.00;;;19.60;73.70;;;;;;10870345;32;20023;-70
2023/04/18 20:47:03;;;;;;;7.90;5.70;;;19.50;73.60;;;;;;10872169;32;20043;-71
2023/04/18 20:53:06;;;;;;;8.68;6.10;;;19.30;73.80;;;;;;10870845;32;20028;-70
2023/04/18 20:59:09;;;;;;;10.35;6.18;;;19.30;73.40;;;;;;10871807;32;20034;-70
2023/04/18 21:05:12;;;;;;;9.20;6.20;;;19.10;73.50;;;;;;10855488;32;20024;-70
2023/04/18 21:11:14;;;;;;;7.47;6.05;;;19.10;73.40;;;;;;10866392;32;20016;-70
2023/04/18 21:17:37;;;;;;;8.45;6.00;;;19.10;73.40;;;;;;10869927;32;20046;-70
2023/04/18 21:23:43;;;;;;;7.15;5.20;;;19.10;73.50;;;;;;10857626;32;20015;-70
2023/04/18 21:29:45;;;;;;;7.78;5.62;;;19.10;74.00;;;;;;10865631;32;20053;-70
2023/04/18 21:35:49;;;;;;;7.57;5.57;;;19.00;74.10;;;;;;10869859;32;20019;-71
2023/04/18 21:42:02;;;;;;;8.65;5.32;;;19.00;74.10;;;;;;10856138;32;20012;-71
2023/04/18 21:48:05;;;;;;;8.23;4.78;;;19.00;75.00;;;;;;10851934;32;20054;-71
2023/04/18 21:54:14;;;;;;;7.43;5.43;;;18.90;75.00;;;;;;10867561;32;20031;-70
2023/04/18 22:00:17;;;;;;;9.32;5.05;;;18.90;74.40;;;;;;10842767;32;20050;-71
2023/04/18 22:06:33;;;;;;;7.97;5.07;;;18.90;74.60;;;;;;10869624;32;20379;-71
2023/04/18 22:12:36;;;;;;;8.82;5.45;;;18.80;74.60;;;;;;10851865;32;20053;-71
2023/04/18 22:18:38;;;;;;;9.15;5.85;;;18.80;74.40;;;;;;10856051;32;20043;-70
2023/04/18 22:24:40;;;;;;;7.45;5.05;;;18.80;74.60;;;;;;10868166;32;20098;-70
2023/04/18 22:30:52;;;;;;;7.03;5.03;;;18.70;74.60;;;;;;10850193;32;20054;-70
2023/04/18 22:37:04;;;;;;;7.37;5.32;;;18.70;74.50;;;;;;10869195;32;20042;-70
2023/04/18 22:43:07;;;;;;;8.05;5.57;;;18.70;74.30;;;;;;10850968;32;20046;-71
2023/04/18 22:49:09;;;;;;;8.88;5.03;;;18.60;75.40;;;;;;10867944;32;20043;-72
2023/04/18 22:55:15;;;;;;;6.28;4.50;;;18.50;75.50;;;;;;10866832;32;20031;-72
2023/04/18 23:01:17;;;;;;;6.72;4.93;;;18.50;75.40;;;;;;10852098;32;20023;-72
2023/04/18 23:07:38;;;;;;;7.32;4.90;;;18.50;75.00;;;;;;10867119;32;20024;-72
2023/04/18 23:13:41;;;;;;;6.40;5.10;;;18.40;74.90;;;;;;10866931;32;20059;-72
2023/04/18 23:19:43;;;;;;;8.85;5.37;;;18.30;75.20;;;;;;10866353;32;20047;-72
2023/04/18 23:25:48;;;;;;;8.35;5.78;;;18.30;74.90;;;;;;10866160;32;20386;-72
2023/04/18 23:31:50;;;;;;;6.90;4.97;;;18.30;75.20;;;;;;10863606;32;20042;-72
2023/04/18 23:37:53;;;;;;;7.78;5.80;;;18.20;75.10;;;;;;10865628;32;20066;-72
2023/04/18 23:43:55;;;;;;;8.30;6.22;;;18.20;75.50;;;;;;10852350;32;20011;-72
2023/04/18 23:49:57;;;;;;;9.00;6.12;;;18.10;75.60;;;;;;10871518;27;20019;-72
2023/04/18 23:55:59;;;;;;;7.00;4.60;;;18.00;75.90;;;;;;10866689;32;20023;-72
